Time;durP1;ratioP1;P1;durP2;ratioP2;P2;SDS_P1;SDS_P2;PMS_P1;PMS_P2;Temp;Humidity;BMP_temperature;BMP_pressure;BME280_temperature;BME280_humidity;BME280_pressure;Samples;Min_cycle;Max_cycle;Signal;HPM_P1;HPM_P2
2021/11/08 00:00:51;;;;;;;6.65;1.40;;;;;;;8.29;100.00;101167.72;5087852;28;20036;-76
2021/11/08 00:03:22;;;;;;;8.65;1.20;;;;;;;8.27;100.00;101159.03;5087251;28;20436;-76
2021/11/08 00:05:48;;;;;;;11.88;1.45;;;;;;;8.24;100.00;101151.31;5088804;28;20465;-76
2021/11/08 00:08:16;;;;;;;7.63;2.03;;;;;;;8.23;100.00;101152.28;5088641;28;20036;-77
2021/11/08 00:10:42;;;;;;;10.20;1.90;;;;;;;8.25;100.00;101163.63;5087793;28;20031;-77
2021/11/08 00:13:08;;;;;;;;;;;;;;;8.29;100.00;101161.53;5089053;28;20047;-76
2021/11/08 00:18:14;;;;;;;8.55;1.15;;;;;;;8.29;100.00;101156.22;5088706;28;20063;-76
2021/11/08 00:20:48;;;;;;;5.57;1.38;;;;;;;8.25;100.00;101129.06;5070839;28;20166;-77
2021/11/08 00:23:14;;;;;;;10.25;1.80;;;;;;;8.29;100.00;101122.50;5087414;28;20579;-76
2021/11/08 00:25:41;;;;;;;5.35;0.95;;;;;;;8.28;100.00;101120.78;5087111;28;20032;-76
2021/11/08 00:28:08;;;;;;;7.70;1.00;;;;;;;8.22;100.00;101106.25;5088355;28;20369;-76
2021/11/08 00:30:35;;;;;;;5.68;1.08;;;;;;;8.24;100.00;101104.28;5087372;28;20040;-77
2021/11/08 00:33:02;;;;;;;9.60;1.42;;;;;;;8.22;100.00;101100.91;5088424;28;20457;-77
2021/11/08 00:35:27;;;;;;;7.30;1.02;;;;;;;8.23;100.00;101091.13;5089585;28;20354;-77
2021/11/08 00:37:53;;;;;;;6.13;1.33;;;;;;;8.24;100.00;101093.66;5091750;28;20085;-77
2021/11/08 00:40:19;;;;;;;5.63;1.10;;;;;;;8.25;100.00;101094.47;5091571;28;20358;-77
2021/11/08 00:42:45;;;;;;;8.75;1.02;;;;;;;8.17;100.00;101086.34;5092550;28;20073;-77
2021/11/08 00:45:11;;;;;;;10.30;2.03;;;;;;;8.27;100.00;101105.00;5091401;28;20101;-77
2021/11/08 00:47:37;;;;;;;6.85;0.90;;;;;;;8.26;100.00;101128.06;5091853;28;20465;-77
2021/11/08 00:50:05;;;;;;;4.47;1.00;;;;;;;8.35;100.00;101145.03;5092464;28;20429;-77
2021/11/08 00:52:31;;;;;;;7.40;1.10;;;;;;;8.35;100.00;101137.88;5091378;28;20044;-76
2021/11/08 00:54:58;;;;;;;3.40;0.50;;;;;;;8.38;100.00;101142.09;5091758;28;20404;-76
2021/11/08 00:57:27;;;;;;;6.70;0.60;;;;;;;8.37;100.00;101162.53;5091187;28;20338;-76
2021/11/08 00:59:54;;;;;;;4.30;0.70;;;;;;;8.36;100.00;101168.84;5091323;28;20023;-76
2021/11/08 01:02:25;;;;;;;10.02;1.30;;;;;;;8.29;100.00;101166.84;5091149;28;20042;-76
2021/11/08 01:04:51;;;;;;;4.13;0.88;;;;;;;8.29;100.00;101181.00;5090829;28;20036;-76
2021/11/08 01:07:17;;;;;;;;;;;;;;;8.34;100.00;101202.72;5092489;28;20027;-76
2021/11/08 01:09:43;;;;;;;5.80;0.98;;;;;;;8.24;100.00;101200.06;5091037;28;19923;-77
2021/11/08 01:12:10;;;;;;;12.80;1.92;;;;;;;8.28;100.00;101227.19;5091814;28;20020;-76
2021/11/08 01:14:36;;;;;;;5.90;0.90;;;;;;;8.34;100.00;101229.34;5073601;28;20054;-76
2021/11/08 01:17:01;;;;;;;10.38;1.13;;;;;;;8.27;100.00;101238.84;5090731;28;20656;-76
2021/11/08 01:19:28;;;;;;;8.90;1.63;;;;;;;8.35;100.00;101268.25;5090824;28;20091;-76
2021/11/08 01:22:03;;;;;;;8.60;1.05;;;;;;;8.30;100.00;101256.34;5090550;28;20035;-76
2021/11/08 01:24:30;;;;;;;;;;;;;;;8.30;100.00;101267.81;5091520;28;20092;-77
2021/11/08 01:26:55;;;;;;;7.43;1.33;;;;;;;8.34;100.00;101290.53;5091571;28;19923;-77
2021/11/08 01:29:21;;;;;;;10.33;1.37;;;;;;;8.31;100.00;101280.16;5091703;28;20036;-76
2021/11/08 01:31:47;;;;;;;9.60;2.17;;;;;;;8.33;100.00;101287.97;5091380;28;20277;-76
2021/11/08 01:34:12;;;;;;;15.77;2.57;;;;;;;8.31;100.00;101288.16;5090334;28;20031;-76
2021/11/08 01:36:41;;;;;;;12.63;2.03;;;;;;;8.39;100.00;101309.56;5073551;28;20350;-76
2021/11/08 01:39:14;;;;;;;18.70;3.40;;;;;;;8.37;100.00;101306.22;5091483;28;20064;-76
2021/11/08 01:41:41;;;;;;;9.43;1.77;;;;;;;8.36;100.00;101315.19;5091388;28;20492;-76
2021/11/08 01:44:07;;;;;;;19.42;3.13;;;;;;;8.31;100.00;101313.88;5090226;28;20042;-76
2021/11/08 01:46:32;;;;;;;21.92;4.70;;;;;;;8.37;100.00;101324.84;5091049;28;20047;-76
2021/11/08 01:48:58;;;;;;;24.33;4.20;;;;;;;8.35;100.00;101324.13;5090309;28;20047;-77
2021/11/08 01:51:23;;;;;;;27.13;3.35;;;;;;;8.33;100.00;101327.91;5089965;28;20393;-76
2021/11/08 01:53:49;;;;;;;30.97;3.77;;;;;;;8.34;100.00;101327.78;5090901;28;20024;-76
2021/11/08 01:56:16;;;;;;;21.97;4.77;;;;;;;8.22;100.00;101319.03;5089962;28;20123;-77
2021/11/08 01:58:42;;;;;;;30.58;5.68;;;;;;;8.23;100.00;101319.88;5073126;28;20028;-76
2021/11/08 02:01:08;;;;;;;38.58;6.60;;;;;;;8.17;100.00;101321.25;5089823;28;20487;-76
2021/11/08 02:03:34;;;;;;;;;;;;;;;8.24;100.00;101324.19;5090020;28;20032;-76
2021/11/08 02:05:59;;;;;;;;;;;;;;;8.16;100.00;101310.75;5089375;28;19919;-76
2021/11/08 02:08:27;;;;;;;38.72;5.93;;;;;;;8.16;100.00;101311.59;5090001;28;19938;-76
2021/11/08 02:10:55;;;;;;;38.05;5.97;;;;;;;8.16;100.00;101302.75;5090783;28;20391;-76
2021/11/08 02:13:22;;;;;;;32.13;4.82;;;;;;;8.13;100.00;101293.25;5089482;28;20048;-76
2021/11/08 02:15:50;;;;;;;29.83;4.85;;;;;;;8.01;100.00;101257.91;5089838;28;20036;-76
2021/11/08 02:18:15;;;;;;;41.42;6.57;;;;;;;8.03;100.00;101266.59;5090764;28;20457;-76
2021/11/08 02:20:44;;;;;;;31.90;6.35;;;;;;;7.99;100.00;101259.03;5089852;28;20093;-76
2021/11/08 02:23:10;;;;;;;38.25;4.70;;;;;;;8.01;100.00;101254.41;5072746;28;20042;-76
2021/11/08 02:25:38;;;;;;;31.50;4.13;;;;;;;8.01;100.00;101252.59;5088829;28;20027;-76
2021/11/08 02:28:06;;;;;;;37.50;5.70;;;;;;;7.94;100.00;101243.47;5089626;28;20032;-77
2021/11/08 02:30:34;;;;;;;29.15;4.97;;;;;;;7.97;100.00;101247.69;5072624;28;20032;-76
2021/11/08 02:33:00;;;;;;;36.50;5.85;;;;;;;7.99;100.00;101243.91;5090365;28;20039;-76
2021/11/08 02:35:27;;;;;;;34.55;5.30;;;;;;;7.94;100.00;101224.03;5089079;28;20051;-76
2021/11/08 02:37:53;;;;;;;42.30;6.18;;;;;;;7.97;100.00;101231.72;5090320;28;20179;-76
2021/11/08 02:40:23;;;;;;;37.85;6.95;;;;;;;7.91;100.00;101225.09;5072361;28;20120;-76
2021/11/08 02:42:51;;;;;;;30.08;4.45;;;;;;;7.93;100.00;101217.84;5089203;28;20149;-76
2021/11/08 02:45:19;;;;;;;28.73;4.57;;;;;;;7.85;100.00;101209.72;5072054;28;20055;-76
2021/11/08 02:47:46;;;;;;;26.00;4.50;;;;;;;7.86;100.00;101219.34;5089079;28;20501;-77
2021/11/08 02:50:14;;;;;;;25.42;3.58;;;;;;;7.98;100.00;101230.72;5089100;28;20032;-76
2021/11/08 02:52:39;;;;;;;27.58;4.05;;;;;;;7.93;100.00;101211.69;5089743;28;20040;-77
2021/11/08 02:55:05;;;;;;;37.07;4.23;;;;;;;8.02;100.00;101224.19;5071763;28;20045;-76
2021/11/08 02:57:34;;;;;;;34.30;5.82;;;;;;;7.89;100.00;101196.97;5088320;28;20231;-77
2021/11/08 03:00:01;;;;;;;26.17;3.80;;;;;;;7.86;100.00;101186.63;5089025;28;20028;-76
2021/11/08 03:02:26;;;;;;;24.63;3.78;;;;;;;7.76;100.00;101170.63;5088783;28;20101;-76
2021/11/08 03:04:54;;;;;;;27.38;6.72;;;;;;;7.80;100.00;101185.34;5089555;28;20028;-77
2021/11/08 03:07:22;;;;;;;37.42;4.95;;;;;;;7.76;100.00;101192.72;5071801;28;20457;-77
2021/11/08 03:09:52;;;;;;;27.02;5.35;;;;;;;7.75;100.00;101183.09;5088671;28;20032;-76
2021/11/08 03:12:22;;;;;;;28.25;4.75;;;;;;;7.72;100.00;101178.03;5088686;28;20118;-77
2021/11/08 03:17:25;;;;;;;24.60;4.40;;;;;;;7.71;100.00;101192.28;5089656;28;20039;-76
2021/11/08 03:19:51;;;;;;;21.58;3.47;;;;;;;7.68;100.00;101178.41;5088465;28;20131;-76
2021/11/08 03:22:20;;;;;;;33.08;4.07;;;;;;;7.61;100.00;101175.47;5088464;28;20123;-77
2021/11/08 03:24:58;;;;;;;29.85;4.18;;;;;;;7.68;100.00;101183.72;5088608;28;20031;-77
2021/11/08 03:30:18;;;;;;;22.80;3.50;;;;;;;7.51;100.00;101170.09;5089357;28;20028;-76
2021/11/08 03:32:45;;;;;;;26.50;3.72;;;;;;;7.54;100.00;101172.50;5088396;28;20118;-76
2021/11/08 03:35:13;;;;;;;21.58;3.53;;;;;;;7.44;100.00;101162.78;5087904;28;20618;-76
2021/11/08 03:37:42;;;;;;;22.38;3.15;;;;;;;7.44;100.00;101160.97;5088283;28;20071;-76
2021/11/08 03:40:11;;;;;;;21.88;2.97;;;;;;;7.23;100.00;101134.44;5089193;28;20119;-76
2021/11/08 03:42:38;;;;;;;24.95;3.35;;;;;;;7.32;100.00;101154.06;5088148;28;20032;-76
2021/11/08 03:45:05;;;;;;;32.63;4.78;;;;;;;7.26;100.00;101159.88;5088790;28;20028;-77
2021/11/08 03:47:30;;;;;;;24.55;5.03;;;;;;;7.29;100.00;101164.94;5089143;28;20031;-76
2021/11/08 03:49:56;;;;;;;27.58;3.35;;;;;;;7.26;100.00;101166.06;5089085;28;20458;-77
2021/11/08 03:52:22;;;;;;;22.67;3.42;;;;;;;7.26;100.00;101162.53;5087817;28;20039;-77
2021/11/08 03:54:47;;;;;;;31.73;5.13;;;;;;;7.23;100.00;101160.16;5088654;28;20032;-76
2021/11/08 03:57:13;;;;;;;19.63;2.53;;;;;;;7.17;100.00;101165.00;5088003;28;20040;-76
2021/11/08 03:59:39;;;;;;;20.92;3.47;;;;;;;7.18;100.00;101173.81;5087882;28;20293;-76
2021/11/08 04:02:04;;;;;;;28.92;3.42;;;;;;;7.13;100.00;101171.56;5088967;28;20043;-77
2021/11/08 04:04:30;;;;;;;17.47;3.07;;;;;;;7.11;100.00;101173.50;5087662;28;20159;-76
2021/11/08 04:06:57;;;;;;;25.92;2.92;;;;;;;7.13;100.00;101195.44;5088857;28;20063;-76
2021/11/08 04:09:22;;;;;;;16.90;2.83;;;;;;;7.12;100.00;101207.06;5087934;28;20354;-77
2021/11/08 04:11:49;;;;;;;27.45;2.95;;;;;;;7.08;100.00;101210.09;5087905;28;20039;-77
2021/11/08 04:14:15;;;;;;;;;;;;;;;7.05;100.00;101223.63;5088934;28;20122;-77
2021/11/08 04:16:43;;;;;;;22.58;3.00;;;;;;;7.08;100.00;101234.81;5087765;28;19920;-77
2021/11/08 04:19:11;;;;;;;24.02;3.63;;;;;;;7.07;100.00;101246.44;5088638;28;20119;-77
2021/11/08 04:21:37;;;;;;;25.15;4.63;;;;;;;7.23;100.00;101285.81;5087561;28;20024;-77
2021/11/08 04:24:04;;;;;;;33.00;5.85;;;;;;;7.17;100.00;101276.53;5087798;28;20157;-77
2021/11/08 04:26:33;;;;;;;21.67;2.85;;;;;;;7.19;100.00;101292.38;5087504;28;20146;-77
2021/11/08 04:29:04;;;;;;;11.18;3.03;;;;;;;7.26;100.00;101309.47;5088433;28;20111;-77
2021/11/08 04:31:35;;;;;;;17.95;4.28;;;;;;;7.31;100.00;101317.06;5088491;28;20100;-77
2021/11/08 04:37:37;;;;;;;13.45;3.35;;;;;;;7.23;100.00;101314.19;5087343;28;20867;-77
2021/11/08 04:39:50;;;;;;;16.45;2.85;;;;;;;7.19;100.00;101321.56;5079867;28;20040;-76
2021/11/08 04:42:29;;;;;;;25.80;4.97;;;;;;;7.09;100.00;101325.94;5088364;28;20040;-76
2021/11/08 04:53:11;;;;;;;14.48;2.72;;;;;;;7.01;100.00;101352.28;5088069;28;20101;-77
2021/11/08 05:23:32;;;;;;;10.20;1.88;;;;;;;7.42;100.00;101468.41;5091752;28;20035;-76
2021/11/08 05:28:29;;;;;;;20.13;5.40;;;;;;;7.34;100.00;101461.09;5091722;28;20036;-76
2021/11/08 05:30:55;;;;;;;16.83;2.13;;;;;;;7.32;100.00;101452.38;5091567;28;20044;-76
2021/11/08 05:33:20;;;;;;;10.67;2.63;;;;;;;7.37;100.00;101473.28;5090410;28;20205;-77
2021/11/08 05:35:46;;;;;;;15.57;3.60;;;;;;;7.40;100.00;101471.22;5091562;28;20493;-76
2021/11/08 05:38:12;;;;;;;14.70;2.03;;;;;;;7.48;100.00;101501.63;5090573;28;20036;-76
2021/11/08 05:40:38;;;;;;;12.43;2.35;;;;;;;7.53;100.00;101516.22;5073549;28;20046;-76
2021/11/08 05:43:06;;;;;;;13.82;3.30;;;;;;;7.51;100.00;101517.31;5087504;28;20028;-77
2021/11/08 05:45:34;;;;;;;14.38;1.95;;;;;;;7.51;100.00;101512.84;5087804;28;20031;-76
2021/11/08 05:48:01;;;;;;;10.75;1.98;;;;;;;7.54;100.00;101525.06;5071473;28;20052;-76
2021/11/08 05:50:28;;;;;;;16.35;2.63;;;;;;;7.53;100.00;101521.53;5073284;28;20060;-77
2021/11/08 05:52:55;;;;;;;13.55;2.05;;;;;;;7.48;100.00;101515.75;5071828;28;20038;-76
2021/11/08 06:49:53;;;;;;;13.40;2.00;;;;;;;7.72;100.00;101589.16;5069836;28;20040;-76
2021/11/08 06:52:20;;;;;;;22.45;1.92;;;;;;;7.74;100.00;101595.22;5052025;28;20036;-75
2021/11/08 06:54:48;;;;;;;14.13;1.67;;;;;;;7.71;100.00;101590.16;5068440;28;20351;-76
2021/11/08 06:57:18;;;;;;;17.08;2.47;;;;;;;7.65;100.00;101591.47;5069573;28;20048;-76
2021/11/08 06:59:46;;;;;;;13.70;2.10;;;;;;;7.69;100.00;101608.88;5068742;28;20044;-76
2021/11/08 07:02:13;;;;;;;14.50;2.65;;;;;;;7.77;100.00;101627.72;5051951;28;20040;-76
2021/11/08 07:04:39;;;;;;;15.95;2.05;;;;;;;7.78;100.00;101639.19;5068346;28;20040;-76
2021/11/08 07:07:06;;;;;;;12.95;1.83;;;;;;;7.78;100.00;101639.19;5051799;28;20686;-75
2021/11/08 07:09:33;;;;;;;15.43;3.28;;;;;;;7.90;100.00;101662.13;5051712;28;20391;-75
2021/11/08 07:12:00;;;;;;;6.85;2.08;;;;;;;7.84;100.00;101670.59;5069288;28;20052;-75
2021/11/08 07:14:25;;;;;;;6.70;1.70;;;;;;;7.85;100.00;101674.13;5068031;28;20036;-75
2021/11/08 07:16:51;;;;;;;8.70;2.50;;;;;;;7.81;100.00;101676.16;5068354;28;20032;-75
2021/11/08 07:19:17;;;;;;;8.18;1.92;;;;;;;7.87;100.00;101688.13;5068204;28;20028;-76
2021/11/08 07:21:44;;;;;;;18.30;2.65;;;;;;;7.80;100.00;101690.44;5068181;28;20032;-76
2021/11/08 07:24:09;;;;;;;;;;;;;;;7.87;100.00;101712.06;5067680;28;20089;-76
2021/11/08 07:26:34;;;;;;;;;;;;;;;7.87;100.00;101712.91;5068644;28;20015;-76
2021/11/08 07:29:00;;;;;;;16.85;3.53;;;;;;;7.85;100.00;101716.66;5069001;28;19928;-76
2021/11/08 07:31:26;;;;;;;11.73;3.67;;;;;;;7.93;100.00;101727.50;5051382;28;20072;-76
2021/11/08 07:33:51;;;;;;;18.35;2.97;;;;;;;7.82;100.00;101715.09;5068716;28;20119;-75
2021/11/08 07:36:17;;;;;;;15.52;2.65;;;;;;;7.86;100.00;101727.16;5051273;28;20052;-75
2021/11/08 07:38:43;;;;;;;19.88;3.38;;;;;;;7.94;100.00;101739.84;5068045;28;20043;-76
2021/11/08 07:41:10;;;;;;;12.07;3.25;;;;;;;7.90;100.00;101744.56;5051441;28;20032;-76
2021/11/08 07:43:38;;;;;;;16.88;3.50;;;;;;;7.95;100.00;101747.69;5067475;28;20541;-76
2021/11/08 07:46:04;;;;;;;15.80;2.70;;;;;;;7.86;100.00;101731.63;5067936;28;20099;-76
2021/11/08 07:48:29;;;;;;;16.02;2.58;;;;;;;7.81;100.00;101716.03;5067800;28;20174;-76
2021/11/08 07:50:55;;;;;;;17.52;3.78;;;;;;;7.94;100.00;101735.38;5067780;28;20036;-76
2021/11/08 07:53:20;;;;;;;16.20;3.10;;;;;;;7.97;100.00;101728.97;5068397;28;20040;-76
2021/11/08 07:55:45;;;;;;;17.33;2.30;;;;;;;7.86;100.00;101708.53;5068609;28;20051;-76
2021/11/08 07:58:11;;;;;;;22.67;3.60;;;;;;;7.96;100.00;101712.19;5067682;28;20132;-76
2021/11/08 08:00:39;;;;;;;16.60;3.25;;;;;;;7.94;100.00;101714.09;5067510;28;20301;-76
2021/11/08 08:03:04;;;;;;;21.83;2.28;;;;;;;7.98;100.00;101715.56;5050828;28;20024;-77
2021/11/08 08:05:31;;;;;;;16.13;3.70;;;;;;;7.98;100.00;101715.56;5068363;28;20938;-76
2021/11/08 08:07:57;;;;;;;16.73;2.90;;;;;;;8.10;100.00;101731.50;5050872;28;20123;-76
2021/11/08 08:10:24;;;;;;;19.00;3.47;;;;;;;8.00;100.00;101710.94;5073665;28;20146;-76
2021/11/08 08:12:49;;;;;;;25.65;3.20;;;;;;;8.11;100.00;101714.56;5088706;28;20043;-76
2021/11/08 08:15:16;;;;;;;22.23;4.83;;;;;;;8.13;100.00;101710.00;5087470;28;20040;-76
2021/11/08 08:17:42;;;;;;;18.73;2.60;;;;;;;8.19;100.00;101691.72;5088471;28;20331;-76
2021/11/08 08:20:16;;;;;;;17.10;3.88;;;;;;;8.39;100.00;101697.22;5087477;28;20032;-76
2021/11/08 08:22:42;;;;;;;13.23;2.75;;;;;;;8.48;100.00;101674.38;5070713;28;20048;-76
2021/11/08 08:25:08;;;;;;;24.98;4.70;;;;;;;8.52;100.00;101649.19;5086821;28;20039;-77
2021/11/08 08:27:34;;;;;;;18.98;3.05;;;;;;;8.73;100.00;101646.56;5088534;28;20071;-75
2021/11/08 08:29:59;;;;;;;15.02;3.10;;;;;;;9.28;100.00;101652.53;5088424;28;20063;-76
2021/11/08 08:32:25;;;;;;;12.95;2.70;;;;;;;10.37;100.00;101650.94;5087433;28;20052;-76
2021/11/08 08:34:51;;;;;;;11.03;2.67;;;;;;;11.11;100.00;101550.63;5087245;28;20028;-76
2021/11/08 08:37:18;;;;;;;13.35;2.15;;;;;;;10.92;100.00;101424.13;5087421;28;20046;-77
2021/11/08 08:39:44;;;;;;;13.52;2.00;;;;;;;10.47;100.00;101338.63;5088436;28;20348;-76
2021/11/08 08:42:10;;;;;;;13.90;1.83;;;;;;;10.07;100.00;101315.69;5087548;28;20036;-76
2021/11/08 08:44:36;;;;;;;10.13;2.30;;;;;;;9.81;100.00;101299.47;5084679;28;20038;-77
2021/11/08 08:47:02;;;;;;;17.85;2.95;;;;;;;9.53;100.00;101302.06;5091854;28;20059;-77
2021/11/08 08:49:28;;;;;;;12.75;4.15;;;;;;;9.22;100.00;101304.03;5071583;28;20052;-77
2021/11/08 08:51:53;;;;;;;19.80;3.28;;;;;;;9.06;100.00;101313.41;5085677;28;20042;-78
2021/11/08 08:54:19;;;;;;;20.83;3.28;;;;;;;9.05;100.00;101319.72;5085722;28;20472;-78
2021/11/08 08:56:46;;;;;;;13.75;3.13;;;;;;;8.98;100.00;101323.06;5088704;28;20054;-77
2021/11/08 08:59:13;;;;;;;14.70;4.93;;;;;;;8.80;100.00;101323.75;5089818;28;20016;-77
2021/11/08 09:01:39;;;;;;;12.70;3.67;;;;;;;8.86;100.00;101339.16;5089868;28;20032;-78
2021/11/08 09:04:05;;;;;;;18.40;4.50;;;;;;;8.80;100.00;101334.41;5089774;28;20038;-77
2021/11/08 09:06:31;;;;;;;;;;;;;;;8.99;100.00;101364.69;5091534;28;20543;-77
2021/11/08 09:08:57;;;;;;;;;;;;;;;9.32;100.00;101376.81;5091466;28;19912;-77
2021/11/08 09:11:23;;;;;;;16.75;3.50;;;;;;;9.50;100.00;101377.81;5091932;28;19912;-77
2021/11/08 09:13:49;;;;;;;16.50;4.45;;;;;;;9.42;100.00;101356.34;5091668;28;20062;-77
2021/11/08 09:16:15;;;;;;;18.15;3.28;;;;;;;9.75;100.00;101369.38;5073891;28;20036;-77
2021/11/08 09:18:44;;;;;;;12.63;3.75;;;;;;;9.39;100.00;101342.44;5073866;28;20036;-77
2021/11/08 09:21:14;;;;;;;11.32;3.63;;;;;;;9.41;100.00;101349.34;5091828;28;20043;-77
2021/11/08 09:23:41;;;;;;;16.13;3.63;;;;;;;9.37;100.00;101355.09;5088586;28;20064;-77
2021/11/08 09:26:08;;;;;;;14.35;4.25;;;;;;;9.38;100.00;101343.44;5091799;28;20406;-77
2021/11/08 09:28:33;;;;;;;;;;;;;;;10.47;100.00;101392.84;5074245;28;20115;-76
2021/11/08 09:30:59;;;;;;;;;;;;;;;11.13;100.00;101390.97;5091261;28;20007;-76
2021/11/08 09:33:26;;;;;;;15.37;3.40;;;;;;;11.19;96.97;101355.59;5091321;28;19916;-76
2021/11/08 09:35:57;;;;;;;16.80;4.10;;;;;;;11.58;93.98;101358.00;5090664;28;20082;-76
2021/11/08 09:38:23;;;;;;;11.85;3.28;;;;;;;10.45;92.73;101328.06;5091665;28;20380;-76
2021/11/08 09:40:49;;;;;;;13.27;2.88;;;;;;;10.18;94.80;101338.69;5090519;28;20032;-76
2021/11/08 09:43:22;;;;;;;10.40;2.75;;;;;;;10.14;94.38;101335.47;5090325;28;20122;-76
2021/11/08 09:45:49;;;;;;;9.57;2.60;;;;;;;10.40;94.32;101350.88;5090710;28;20103;-77
2021/11/08 09:48:15;;;;;;;13.38;2.42;;;;;;;9.92;94.93;101348.16;5089430;28;20036;-77
2021/11/08 09:50:43;;;;;;;12.07;2.50;;;;;;;9.72;96.80;101358.00;5090526;28;20020;-78
2021/11/08 09:53:10;;;;;;;10.88;2.80;;;;;;;9.68;98.20;101367.28;5089285;28;20039;-78
2021/11/08 09:55:36;;;;;;;19.20;3.15;;;;;;;9.30;99.18;101352.13;5089526;28;20472;-78
2021/11/08 09:58:04;;;;;;;13.98;2.40;;;;;;;9.67;99.84;101384.28;5089391;28;20043;-78
2021/11/08 10:00:36;;;;;;;16.83;3.50;;;;;;;9.64;100.00;101386.34;5089636;28;20031;-78
2021/11/08 10:03:22;;;;;;;14.23;3.25;;;;;;;10.17;99.94;101401.06;5089460;28;20453;-79
2021/11/08 10:05:49;;;;;;;9.05;2.28;;;;;;;10.11;97.89;101389.09;5090544;28;20107;-78
2021/11/08 10:08:18;;;;;;;12.68;2.28;;;;;;;10.03;97.59;101381.00;5088849;28;20350;-79
2021/11/08 10:10:43;;;;;;;22.00;3.78;;;;;;;9.88;97.30;101368.09;5090205;28;20046;-79
2021/11/08 10:13:16;;;;;;;11.30;2.17;;;;;;;9.90;96.48;101370.59;5089120;28;20040;-78
2021/11/08 10:15:47;;;;;;;12.07;2.08;;;;;;;10.23;96.37;101371.97;5089097;28;20285;-78
2021/11/08 10:18:14;;;;;;;15.48;2.83;;;;;;;10.50;96.45;101394.38;5090174;28;20071;-78
2021/11/08 10:20:43;;;;;;;16.95;3.55;;;;;;;10.46;95.95;101375.13;5090098;28;20556;-79
2021/11/08 10:23:10;;;;;;;7.88;2.17;;;;;;;10.45;95.98;101380.63;5072254;28;20020;-78
2021/11/08 10:25:39;;;;;;;21.77;5.53;;;;;;;10.02;94.93;101358.81;5089406;28;20119;-79
2021/11/08 10:28:16;;;;;;;12.23;2.50;;;;;;;9.90;96.56;101370.59;5089073;28;20089;-79
2021/11/08 10:30:42;;;;;;;;;;;;;;;10.12;96.30;101382.81;5089657;28;20032;-78
2021/11/08 10:33:12;;;;;;;20.77;4.20;;;;;;;10.30;96.40;101398.91;5089963;28;20369;-79
2021/11/08 10:36:03;;;;;;;16.77;3.17;;;;;;;10.28;97.24;101385.75;5089076;28;20109;-79
2021/11/08 10:38:33;;;;;;;17.15;3.25;;;;;;;9.72;97.40;101362.50;5088903;28;20461;-79
2021/11/08 10:41:02;;;;;;;19.58;5.70;;;;;;;9.72;97.91;101384.69;5072193;28;20024;-79
2021/11/08 10:43:33;;;;;;;17.88;3.38;;;;;;;9.57;98.23;101375.41;5089540;28;20304;-79
2021/11/08 10:46:07;;;;;;;13.95;2.65;;;;;;;9.66;99.16;101385.22;5089656;28;20107;-79
2021/11/08 10:48:38;;;;;;;11.43;2.67;;;;;;;9.88;99.93;101394.78;5088735;28;20378;-80
2021/11/08 10:51:06;;;;;;;17.27;3.40;;;;;;;9.85;99.50;101381.72;5071694;28;20063;-79
2021/11/08 10:53:55;;;;;;;13.23;2.65;;;;;;;9.79;98.96;101376.97;5089372;28;20020;-80
2021/11/08 10:56:23;;;;;;;12.27;3.05;;;;;;;9.72;98.75;101382.00;5088711;28;20115;-80
2021/11/08 10:58:50;;;;;;;12.00;2.33;;;;;;;9.87;98.71;101381.56;5088433;28;20047;-79
2021/11/08 11:01:22;;;;;;;11.40;2.03;;;;;;;9.94;97.99;101398.69;5088220;28;20093;-79
2021/11/08 11:03:49;;;;;;;6.70;2.22;;;;;;;9.95;96.85;101376.38;5088277;28;20036;-79
2021/11/08 11:06:18;;;;;;;12.90;2.47;;;;;;;9.89;96.48;101376.94;5088507;28;20111;-79
2021/11/08 11:08:52;;;;;;;15.07;2.80;;;;;;;9.75;97.05;101377.38;5089405;28;20378;-80
2021/11/08 11:11:23;;;;;;;9.80;2.40;;;;;;;9.66;97.08;101371.06;5071437;28;20032;-81
2021/11/08 11:13:52;;;;;;;8.82;2.13;;;;;;;9.68;97.27;101382.44;5071200;28;20032;-80
2021/11/08 11:16:32;;;;;;;15.32;2.70;;;;;;;9.70;99.08;101397.31;5071486;28;20043;-81
2021/11/08 11:19:01;;;;;;;12.98;2.38;;;;;;;9.44;99.00;101385.53;5088059;28;20060;-80
2021/11/08 11:21:27;;;;;;;8.35;2.30;;;;;;;9.32;99.25;101375.97;5088450;28;20119;-82
2021/11/08 11:24:00;;;;;;;7.53;2.00;;;;;;;9.21;99.47;101380.44;5070600;28;20054;-81
2021/11/08 11:26:29;;;;;;;6.55;1.65;;;;;;;9.28;100.00;101394.06;5088256;28;20032;-80
2021/11/08 11:28:56;;;;;;;7.22;1.95;;;;;;;9.32;100.00;101394.63;5088105;28;20726;-79
2021/11/08 11:31:27;;;;;;;12.93;2.30;;;;;;;9.23;100.00;101386.47;5070970;28;20040;-79
2021/11/08 11:33:54;;;;;;;10.98;2.47;;;;;;;9.20;100.00;101378.78;5087568;28;20031;-82
2021/11/08 11:36:22;;;;;;;13.07;2.20;;;;;;;9.11;100.00;101374.28;5087766;28;20038;-79
2021/11/08 11:38:55;;;;;;;7.22;2.63;;;;;;;9.11;100.00;101384.94;5087904;28;20016;-80
2021/11/08 11:41:29;;;;;;;8.02;1.45;;;;;;;9.04;100.00;101387.28;5087886;28;20035;-80
2021/11/08 11:44:00;;;;;;;8.43;1.58;;;;;;;8.94;100.00;101367.75;5087390;28;20036;-78
2021/11/08 11:46:32;;;;;;;7.78;1.67;;;;;;;8.93;100.00;101391.88;5087270;28;20104;-77
2021/11/08 11:49:02;;;;;;;9.88;1.77;;;;;;;8.85;100.00;101389.91;5087608;28;20429;-79
2021/11/08 11:51:31;;;;;;;9.02;1.33;;;;;;;8.98;100.00;101416.28;5087567;28;20036;-78
2021/11/08 11:53:58;;;;;;;5.10;1.60;;;;;;;8.98;100.00;101416.28;5088102;28;20028;-78
2021/11/08 11:56:26;;;;;;;5.38;1.00;;;;;;;8.88;100.00;101416.25;5087267;28;20036;-79
2021/11/08 11:58:52;;;;;;;3.75;1.10;;;;;;;8.93;100.00;101423.84;5088280;28;20020;-78
2021/11/08 12:01:24;;;;;;;1.73;0.70;;;;;;;8.99;100.00;101428.63;5088163;28;20048;-79
2021/11/08 12:03:53;;;;;;;2.72;0.80;;;;;;;8.95;100.00;101428.06;5086947;28;20039;-79
2021/11/08 12:06:32;;;;;;;1.83;0.73;;;;;;;9.05;100.00;101438.75;5087507;28;20034;-79
2021/11/08 12:08:59;;;;;;;2.28;0.55;;;;;;;9.07;100.00;101434.13;5087444;28;20042;-80
2021/11/08 12:11:28;;;;;;;2.10;0.63;;;;;;;8.95;100.00;101430.72;5087136;28;20089;-79
2021/11/08 12:14:00;;;;;;;3.42;0.50;;;;;;;9.08;100.00;101443.78;5087087;28;20438;-79
2021/11/08 12:16:26;;;;;;;1.98;0.70;;;;;;;9.12;100.00;101449.69;5087332;28;20044;-79
2021/11/08 12:18:53;;;;;;;1.35;0.40;;;;;;;8.94;100.00;101434.34;5087390;28;20036;-79
2021/11/08 12:21:23;;;;;;;;;;;;;;;9.07;100.00;101448.28;5087611;28;20020;-79
2021/11/08 12:23:49;;;;;;;1.00;0.30;;;;;;;9.03;100.00;101446.00;5087283;28;20401;-80
2021/11/08 12:26:17;;;;;;;1.30;0.20;;;;;;;9.18;100.00;101458.00;5070291;28;20063;-80
2021/11/08 12:28:43;;;;;;;2.08;0.32;;;;;;;9.13;100.00;101454.91;5086993;28;20028;-80
2021/11/08 12:31:09;;;;;;;3.92;0.40;;;;;;;8.95;100.00;101448.53;5087187;28;20503;-79
2021/11/08 12:33:38;;;;;;;2.83;0.40;;;;;;;8.82;100.00;101444.25;5087574;28;20040;-78
2021/11/08 12:36:06;;;;;;;1.33;0.20;;;;;;;8.82;100.00;101440.75;5087881;28;20016;-80
2021/11/08 12:38:34;;;;;;;1.55;0.20;;;;;;;8.69;100.00;101432.16;5086868;28;20036;-80
2021/11/08 12:41:06;;;;;;;0.28;0.28;;;;;;;8.56;100.00;101446.53;5086911;28;20044;-79
2021/11/08 12:43:32;;;;;;;2.13;0.43;;;;;;;8.62;100.00;101451.31;5087566;28;20078;-80
2021/11/08 12:46:09;;;;;;;0.25;0.20;;;;;;;8.77;100.00;101469.59;5087674;28;20032;-79
2021/11/08 12:48:36;;;;;;;0.28;0.20;;;;;;;8.66;100.00;101470.53;5069723;28;20047;-80
2021/11/08 12:51:03;;;;;;;2.58;0.40;;;;;;;8.71;100.00;101478.97;5086564;28;20028;-80
2021/11/08 12:53:31;;;;;;;1.05;0.68;;;;;;;8.66;100.00;101476.72;5087417;28;20024;-79
2021/11/08 12:56:08;;;;;;;0.75;0.40;;;;;;;8.60;100.00;101487.88;5086374;28;20035;-79
2021/11/08 12:58:44;;;;;;;0.85;0.35;;;;;;;8.45;100.00;101487.38;5086787;28;20372;-78
2021/11/08 13:01:15;;;;;;;2.15;0.50;;;;;;;8.67;100.00;101498.84;5086502;28;20040;-77
2021/11/08 13:03:44;;;;;;;1.02;0.68;;;;;;;8.55;100.00;101487.44;5069578;28;20028;-77
2021/11/08 13:06:23;;;;;;;2.05;1.80;;;;;;;8.54;100.00;101495.53;5087302;28;20111;-77
2021/11/08 13:08:48;;;;;;;1.35;0.93;;;;;;;8.56;100.00;101498.91;5069664;28;20445;-76
2021/11/08 13:11:15;;;;;;;2.20;1.30;;;;;;;8.52;100.00;101514.31;5086456;28;20058;-77